Terminal Aerodrome Forecast
Issued by NWS

Home | Current Version | Previous Version | Text Only | Print | Product List | Glossary On
Versions: 1 2 3 4 5 6 7 8 9 10 11 12 13 14 15 16 17 18
000
FTUS44 KCRP 300537
TAFALI
TAF
KALI 300537Z 3006/0106 15004KT 4SM BR SKC
     FM301030 VRB03KT 2SM BR BKN012
      TEMPO 3011/3013 1SM BR BKN004
     FM301400 16012KT P6SM SCT018 SCT025 PROB30 3015/3021 4SM TSRA
      BR BKN025CB BKN060
     FM302100 15014KT P6SM SCT030 OVC120 PROB30 3021/0101 4SM TSRA
      BR BKN025CB OVC120
     FM010100 14007KT P6SM VCSH FEW025 BKN120=

USA.gov is the U.S. government's official web portal to all federal, state and local government web resources and services.